Kezdőlap
METAR-TAF:

METAR-TAF

Repülőterek :

Spaa

Tomaszów Mazowiecki, Lengyelország

földrajzi szélesség: 51-35-04N, földrajzi hosszúság: 020-05-52E, magasság: 174 m

METAR: hiányzik

Idő: 15:52 (13:52 UTC)

Előrejelzés

A jelentés 2 órával és 52 perccel ezelõtt készült, 11:00 UTC
Az előrejelzés 14-én 12 óra UTC és 14-én 21 óra UTC között érvényes
Nyugat-északnyugati szél 6 kt
Látótávolság 10 km, vagy több
felhőtlen 1500 m magasságban, és nincs gomolyfelhõ
Valószínűség 30% :
14-én 12 óra UTC és 14-én 14 óra UTC között ideiglenes
Látótávolság: 8000 m
Szakadozott felhőzet 3500 lábon, Cumulonimbus.
záporok

TAF: EPTM 141100Z 1412/1421 30006KT CAVOK PROB30 TEMPO 1412/1414 8000 SHRA BKN035CB

Meteorológiai megfigyelések és előrejelzések több, mint 4000 repülőtéren (METAR és TAF jelentéseket).

A térképen piros és sárga pontok jelzik az elérhető meteorológiai állomásokat.

Mozgassa az egeret a pont fölött, hogy megjelenjen az állomás neve.

Azután kattintson az időjárási megfigyelések és előrejelzések megtekintéséhez.

A térkép megváltoztatása: kattintson a fekete keresztel jelölt zöld gombra ráközelítéshez, a vonallal jelölt zöld gombra távolításhoz, vagy a zöld nyilakra a szomszédos térképek eléréséhez.


METAR-TAF: